createdAt,value
2022-10-09T00:04:58.673Z,8.57
2022-10-09T00:10:01.347Z,8.52
2022-10-09T00:15:06.236Z,8.39
2022-10-09T00:20:09.218Z,8.59
2022-10-09T00:25:11.760Z,8.60
2022-10-09T00:30:14.381Z,8.60
2022-10-09T00:35:16.992Z,8.50
2022-10-09T00:40:19.615Z,8.53
2022-10-09T00:45:22.266Z,8.56
2022-10-09T00:50:31.026Z,8.45
2022-10-09T00:55:35.766Z,8.41
2022-10-09T01:00:38.450Z,8.17
2022-10-09T01:05:57.216Z,8.36
2022-10-09T01:11:09.752Z,8.33
2022-10-09T01:16:29.627Z,8.31
2022-10-09T01:21:41.053Z,8.23
2022-10-09T01:26:57.527Z,8.14
2022-10-09T01:32:01.954Z,8.02
2022-10-09T01:37:05.470Z,8.15
2022-10-09T01:42:10.299Z,8.01
2022-10-09T01:47:18.262Z,8.13
2022-10-09T01:52:48.574Z,8.07
2022-10-09T01:58:01.548Z,8.00
2022-10-09T02:03:08.921Z,8.07
2022-10-09T02:08:18.553Z,8.04
2022-10-09T02:13:21.826Z,8.02
2022-10-09T02:18:39.772Z,7.98
2022-10-09T02:23:45.289Z,7.96
2022-10-09T02:28:48.016Z,8.00
2022-10-09T02:33:58.133Z,8.05
2022-10-09T02:39:01.188Z,8.09
2022-10-09T02:44:05.041Z,8.11
2022-10-09T02:49:07.718Z,8.22
2022-10-09T02:54:10.517Z,8.15
2022-10-09T02:59:13.153Z,8.06
2022-10-09T03:04:16.027Z,8.17
2022-10-09T03:09:18.629Z,8.19
2022-10-09T03:14:21.345Z,8.28
2022-10-09T03:19:23.886Z,8.30
2022-10-09T03:24:26.392Z,8.22
2022-10-09T03:29:29.193Z,8.06
2022-10-09T03:34:31.737Z,8.25
2022-10-09T03:39:34.346Z,8.08
2022-10-09T03:44:36.971Z,8.13
2022-10-09T03:49:39.589Z,8.15
2022-10-09T03:54:42.192Z,8.14
2022-10-09T03:59:44.779Z,8.15
2022-10-09T04:04:47.451Z,8.18
2022-10-09T04:09:50.214Z,8.27
2022-10-09T04:14:52.934Z,8.19
2022-10-09T04:19:55.545Z,8.18
2022-10-09T04:24:58.138Z,8.41
2022-10-09T04:30:00.717Z,8.48
2022-10-09T04:35:03.723Z,8.61
2022-10-09T04:40:06.812Z,8.76
2022-10-09T04:45:10.026Z,9.06
2022-10-09T04:50:12.690Z,9.08
2022-10-09T04:55:15.400Z,9.26
2022-10-09T05:00:18.047Z,9.24
2022-10-09T05:05:20.604Z,9.50
2022-10-09T05:10:23.198Z,9.66
2022-10-09T05:15:26.144Z,9.86
2022-10-09T05:20:29.298Z,10.01
2022-10-09T05:25:32.842Z,10.12
2022-10-09T05:30:35.509Z,10.30
2022-10-09T05:35:38.137Z,10.46
2022-10-09T05:40:53.785Z,10.75
2022-10-09T05:46:04.331Z,11.01
2022-10-09T05:51:08.888Z,11.21
2022-10-09T05:56:15.373Z,11.20
2022-10-09T06:01:18.597Z,11.41
2022-10-09T06:06:23.571Z,11.65
2022-10-09T06:11:31.811Z,11.89
2022-10-09T06:16:37.288Z,12.04
2022-10-09T06:21:40.823Z,12.19
2022-10-09T06:26:43.610Z,12.35
2022-10-09T06:31:46.193Z,12.45
2022-10-09T06:36:49.294Z,12.48
2022-10-09T06:41:51.961Z,12.58
2022-10-09T06:47:15.819Z,12.70
2022-10-09T06:52:18.405Z,12.68
2022-10-09T06:57:20.941Z,12.73
2022-10-09T07:02:23.581Z,12.82
2022-10-09T07:07:26.296Z,12.73
2022-10-09T07:12:28.909Z,12.60
2022-10-09T07:17:31.472Z,12.78
2022-10-09T07:22:34.043Z,12.93
2022-10-09T07:27:36.691Z,12.90
2022-10-09T07:32:39.357Z,13.11
2022-10-09T07:37:41.919Z,13.24
2022-10-09T07:42:44.558Z,13.36
2022-10-09T07:47:47.146Z,13.58
2022-10-09T07:52:50.058Z,13.60
2022-10-09T07:57:52.933Z,13.68
2022-10-09T08:02:55.839Z,13.99
2022-10-09T08:07:58.701Z,14.12
2022-10-09T08:13:01.327Z,14.21
2022-10-09T08:18:03.998Z,14.47
2022-10-09T08:23:06.968Z,14.76
2022-10-09T08:28:09.863Z,14.95
2022-10-09T08:33:12.824Z,15.24
2022-10-09T08:38:37.515Z,15.28
2022-10-09T08:43:44.419Z,15.36
2022-10-09T08:48:48.517Z,15.18
2022-10-09T08:54:30.071Z,15.29
2022-10-09T08:59:34.034Z,15.20
2022-10-09T09:04:45.198Z,15.45
2022-10-09T09:10:11.175Z,15.59
2022-10-09T09:15:45.962Z,15.61
2022-10-09T09:21:14.514Z,15.42
2022-10-09T09:26:20.091Z,15.45
2022-10-09T09:31:30.550Z,15.99
2022-10-09T09:36:52.724Z,16.50
2022-10-09T09:42:15.083Z,16.56
2022-10-09T09:47:26.659Z,16.52
2022-10-09T09:52:35.909Z,16.53
2022-10-09T09:57:43.906Z,16.67
2022-10-09T10:02:46.939Z,16.74
2022-10-09T10:07:50.225Z,16.95
2022-10-09T10:12:53.041Z,16.87
2022-10-09T10:18:04.998Z,16.69
2022-10-09T10:23:21.568Z,17.08
2022-10-09T10:28:37.880Z,17.25
2022-10-09T10:33:43.837Z,16.77
2022-10-09T10:38:57.385Z,16.83
2022-10-09T10:44:30.675Z,16.79
2022-10-09T10:49:34.105Z,17.03
2022-10-09T10:55:00.032Z,17.14
2022-10-09T11:00:14.038Z,17.00
2022-10-09T11:05:41.200Z,16.97
2022-10-09T11:11:08.646Z,17.10
2022-10-09T11:16:46.847Z,16.87
2022-10-09T11:21:58.578Z,16.70
2022-10-09T11:27:24.025Z,16.69
2022-10-09T11:32:38.146Z,16.25
2022-10-09T11:37:44.051Z,15.99
2022-10-09T11:42:59.410Z,15.89
2022-10-09T11:48:40.393Z,15.54
2022-10-09T11:53:44.516Z,15.49
2022-10-09T11:59:08.003Z,15.38
2022-10-09T12:04:13.648Z,15.39
2022-10-09T12:09:32.843Z,15.29
2022-10-09T12:14:38.457Z,15.21
2022-10-09T12:19:42.368Z,15.11
2022-10-09T12:24:49.097Z,14.97
2022-10-09T12:30:05.558Z,14.93
2022-10-09T12:35:33.648Z,14.57
2022-10-09T12:40:37.396Z,13.92
2022-10-09T12:45:44.398Z,13.47
2022-10-09T12:50:47.469Z,13.10
2022-10-09T12:55:58.700Z,12.81
2022-10-09T13:01:04.361Z,12.59
2022-10-09T13:06:32.812Z,12.36
2022-10-09T13:11:44.985Z,12.30
2022-10-09T13:16:48.848Z,12.15
2022-10-09T13:22:13.402Z,12.25
2022-10-09T13:27:16.317Z,12.16
2022-10-09T13:32:19.654Z,11.96
2022-10-09T13:37:24.873Z,11.99
2022-10-09T13:42:32.596Z,12.01
2022-10-09T13:47:35.223Z,11.88
2022-10-09T13:57:46.413Z,11.79
2022-10-09T14:02:49.063Z,11.75
2022-10-09T14:07:51.865Z,11.71
2022-10-09T14:12:54.785Z,11.61
2022-10-09T14:17:57.361Z,11.63
2022-10-09T14:22:59.983Z,11.50
2022-10-09T14:28:03.059Z,11.49
2022-10-09T14:33:05.689Z,11.55
2022-10-09T14:38:08.442Z,11.55
2022-10-09T14:43:11.847Z,11.37
2022-10-09T14:48:14.448Z,11.34
2022-10-09T14:53:17.000Z,11.27
2022-10-09T14:58:19.713Z,11.25
2022-10-09T15:03:22.472Z,11.13
2022-10-09T15:08:26.127Z,11.09
2022-10-09T15:13:29.395Z,11.04
2022-10-09T15:18:32.890Z,11.06
2022-10-09T15:23:35.497Z,10.99
2022-10-09T15:28:39.555Z,10.96
2022-10-09T15:33:42.321Z,10.92
2022-10-09T15:38:45.158Z,10.98
2022-10-09T15:43:48.335Z,10.84
2022-10-09T15:48:51.813Z,10.72
2022-10-09T15:53:54.426Z,10.72
2022-10-09T15:58:58.376Z,10.82
2022-10-09T16:04:01.053Z,10.77
2022-10-09T16:09:05.573Z,10.69
2022-10-09T16:14:08.165Z,10.58
2022-10-09T16:19:10.852Z,10.52
2022-10-09T16:24:13.405Z,10.61
2022-10-09T16:29:16.278Z,10.56
2022-10-09T16:34:18.977Z,10.59
2022-10-09T16:39:23.802Z,10.55
2022-10-09T16:44:26.440Z,10.48
2022-10-09T16:49:29.100Z,10.46
2022-10-09T16:54:31.826Z,10.49
2022-10-09T16:59:34.429Z,10.52
2022-10-09T17:04:37.717Z,10.40
2022-10-09T17:09:41.309Z,10.39
2022-10-09T17:14:44.246Z,10.38
2022-10-09T17:19:46.961Z,10.53
2022-10-09T17:24:49.630Z,10.60
2022-10-09T17:29:52.338Z,10.46
2022-10-09T17:34:54.904Z,10.53
2022-10-09T17:39:57.696Z,10.54
2022-10-09T17:45:00.651Z,10.56
2022-10-09T17:50:03.442Z,10.52
2022-10-09T17:55:07.125Z,10.47
2022-10-09T18:00:10.574Z,10.53
2022-10-09T18:05:13.243Z,10.59
2022-10-09T18:10:17.007Z,10.49
2022-10-09T18:15:20.004Z,10.60
2022-10-09T18:20:22.916Z,10.54
2022-10-09T18:25:25.571Z,10.55
2022-10-09T18:30:28.233Z,10.48
2022-10-09T18:35:31.034Z,10.52
2022-10-09T18:40:45.516Z,10.56
2022-10-09T18:45:48.740Z,10.44
2022-10-09T18:50:51.400Z,10.44
2022-10-09T18:55:54.136Z,10.40
2022-10-09T19:00:56.726Z,10.33
2022-10-09T19:05:59.389Z,10.29
2022-10-09T19:11:02.321Z,10.42
2022-10-09T19:16:05.800Z,10.49
2022-10-09T19:21:13.162Z,10.38
2022-10-09T19:26:16.234Z,10.45
2022-10-09T19:31:18.937Z,10.30
2022-10-09T19:36:21.557Z,10.40
2022-10-09T19:41:24.166Z,10.43
2022-10-09T19:46:27.204Z,10.50
2022-10-09T19:51:29.970Z,10.45
2022-10-09T19:56:35.308Z,10.51
2022-10-09T20:01:40.186Z,10.54
2022-10-09T20:06:43.377Z,10.40
2022-10-09T20:11:46.045Z,10.48
2022-10-09T20:16:48.772Z,10.49
2022-10-09T20:21:51.507Z,10.33
2022-10-09T20:26:54.181Z,10.38
2022-10-09T20:31:56.823Z,10.34
2022-10-09T20:36:59.430Z,10.16
2022-10-09T20:42:02.054Z,10.12
2022-10-09T20:47:04.734Z,10.15
2022-10-09T20:52:07.285Z,10.20
2022-10-09T20:57:10.774Z,9.94
2022-10-09T21:02:14.345Z,9.94
2022-10-09T21:07:16.941Z,9.96
2022-10-09T21:12:19.545Z,9.90
2022-10-09T21:17:22.095Z,9.77
2022-10-09T21:22:25.761Z,9.73
2022-10-09T21:27:30.070Z,9.48
2022-10-09T21:32:32.957Z,9.50
2022-10-09T21:37:37.466Z,9.53
2022-10-09T21:42:40.228Z,9.51
2022-10-09T21:47:42.845Z,9.51
2022-10-09T21:52:48.386Z,9.52
2022-10-09T21:57:52.026Z,9.42
2022-10-09T22:02:54.921Z,9.47
2022-10-09T22:07:57.552Z,9.49
2022-10-09T22:13:00.222Z,9.48
2022-10-09T22:18:02.833Z,9.50
2022-10-09T22:23:05.437Z,9.54
2022-10-09T22:28:08.398Z,9.41
2022-10-09T22:33:11.016Z,9.32
2022-10-09T22:38:13.612Z,9.45
2022-10-09T22:43:16.228Z,9.47
2022-10-09T22:48:18.928Z,9.52
2022-10-09T22:53:21.585Z,9.47
2022-10-09T22:58:24.469Z,9.45
2022-10-09T23:03:27.021Z,9.46
2022-10-09T23:08:29.831Z,9.42
2022-10-09T23:13:32.740Z,9.32
2022-10-09T23:18:36.269Z,9.35
2022-10-09T23:23:39.280Z,9.33
2022-10-09T23:28:43.021Z,9.28
2022-10-09T23:33:46.592Z,9.27
2022-10-09T23:38:50.275Z,9.31
2022-10-09T23:43:53.392Z,9.33
2022-10-09T23:48:56.644Z,9.39
2022-10-09T23:53:59.870Z,9.34
2022-10-09T23:59:06.317Z,9.38
